PAIL

Details ICAO PAIL (ILI)
Name ILIAMNA
Region USA (Alaska)
Timezone America/Anchorage (UTC-8.0)
Plans Departing 7
Arriving 8
Stats Elevation 186 ft / 57 m (AMSL)
Location 59.753866° -154.910979°
Runways 2
Magnetic Variation 14.118° E
Sunrise 2018-05-23 13:27:25 UTC / 2018-05-23 05:27:25 Local
Sunset 2018-05-24 07:08:19 UTC / 2018-05-23 23:08:19 Local
Advertisement - Login to hide

Runways

ID Width Length Bearing (true) Bearing (mag) Surface Threshold Offset Overrun Length
07 100 ft / 30 m 5,070 ft / 1,545 m 92.39° 78.27° Asphalt 0 ft / 0 m 0 ft / 0 m
17 100 ft / 30 m 4,792 ft / 1,461 m 189.05° 174.93° Asphalt 0 ft / 0 m 0 ft / 0 m
25 100 ft / 30 m 5,070 ft / 1,545 m 272.42° 258.30° Asphalt 0 ft / 0 m 0 ft / 0 m
35 100 ft / 30 m 4,792 ft / 1,461 m 9.05° 354.93° Asphalt 0 ft / 0 m 0 ft / 0 m

Map

Weather


0- 5 10 15 20 25 30 35+ Temperature / ° C

Clouds and Precipitation
Forecast for 2018-05-24 06:00 UTC. Updated 2 hours ago

Ground ~20,000 ft ~40,000 ft Winds

METAR

PAIL 240653Z AUTO 13012G19KT 10SM CLR 06/04 A2968 RMK AO2 RAB0554E08 SLP052 P0000 T00610044 TSNO

TAF

PAIL 240541Z 2406/2506 05007KT P6SM SCT070 FM242100 10012G18KT P6SM BKN070

Frequencies

Recorded 134.95 MHz ASOS
Unicom 123.60 MHz CTAF
Recorded 134.95 MHz ATIS
Warning: Do not use this data for real-world aviation or navigation. No guarantee of current accuracy is given.